sensor_id;sensor_type;location;lat;lon;timestamp;temperature;humidity
52321;DHT22;38261;54.090;13.382;2023-04-03T00:01:12;3.10;99.90
52321;DHT22;38261;54.090;13.382;2023-04-03T00:02:35;3.10;99.90
52321;DHT22;38261;54.090;13.382;2023-04-03T00:03:57;3.10;99.90
52321;DHT22;38261;54.090;13.382;2023-04-03T00:05:20;3.10;99.90
52321;DHT22;38261;54.090;13.382;2023-04-03T00:06:42;3.20;99.90
52321;DHT22;38261;54.090;13.382;2023-04-03T00:08:04;3.20;99.90
52321;DHT22;38261;54.090;13.382;2023-04-03T00:09:29;3.20;99.90
52321;DHT22;38261;54.090;13.382;2023-04-03T00:10:51;3.30;99.90
52321;DHT22;38261;54.090;13.382;2023-04-03T00:12:14;3.20;99.90
52321;DHT22;38261;54.090;13.382;2023-04-03T00:13:38;3.20;99.90
52321;DHT22;38261;54.090;13.382;2023-04-03T00:15:00;3.20;99.90
52321;DHT22;38261;54.090;13.382;2023-04-03T00:16:22;3.20;99.90
52321;DHT22;38261;54.090;13.382;2023-04-03T00:17:44;3.30;99.90
52321;DHT22;38261;54.090;13.382;2023-04-03T00:19:07;3.20;99.90
52321;DHT22;38261;54.090;13.382;2023-04-03T00:20:30;3.30;99.90
52321;DHT22;38261;54.090;13.382;2023-04-03T00:21:52;3.20;99.90
52321;DHT22;38261;54.090;13.382;2023-04-03T00:23:15;3.30;99.90
52321;DHT22;38261;54.090;13.382;2023-04-03T00:24:37;3.20;99.90
52321;DHT22;38261;54.090;13.382;2023-04-03T00:25:59;3.30;99.90
52321;DHT22;38261;54.090;13.382;2023-04-03T00:27:21;3.30;99.90
52321;DHT22;38261;54.090;13.382;2023-04-03T00:28:43;3.30;99.90
52321;DHT22;38261;54.090;13.382;2023-04-03T00:30:07;3.30;99.90
52321;DHT22;38261;54.090;13.382;2023-04-03T00:31:30;3.30;99.90
52321;DHT22;38261;54.090;13.382;2023-04-03T00:32:52;3.30;99.90
52321;DHT22;38261;54.090;13.382;2023-04-03T00:34:15;3.30;99.90
52321;DHT22;38261;54.090;13.382;2023-04-03T00:35:37;3.20;99.90
52321;DHT22;38261;54.090;13.382;2023-04-03T00:37:00;3.20;99.90
52321;DHT22;38261;54.090;13.382;2023-04-03T00:38:22;3.10;99.90
52321;DHT22;38261;54.090;13.382;2023-04-03T00:39:44;3.10;99.90
52321;DHT22;38261;54.090;13.382;2023-04-03T00:41:06;3.10;99.90
52321;DHT22;38261;54.090;13.382;2023-04-03T00:42:28;3.10;99.90
52321;DHT22;38261;54.090;13.382;2023-04-03T00:43:51;3.20;99.90
52321;DHT22;38261;54.090;13.382;2023-04-03T00:45:35;3.20;99.90
52321;DHT22;38261;54.090;13.382;2023-04-03T00:46:57;3.10;99.90
52321;DHT22;38261;54.090;13.382;2023-04-03T00:48:31;3.20;99.90
52321;DHT22;38261;54.090;13.382;2023-04-03T00:49:54;3.20;99.90
52321;DHT22;38261;54.090;13.382;2023-04-03T00:51:20;3.20;99.90
52321;DHT22;38261;54.090;13.382;2023-04-03T00:52:43;3.20;99.90
52321;DHT22;38261;54.090;13.382;2023-04-03T00:54:08;3.20;99.90
52321;DHT22;38261;54.090;13.382;2023-04-03T00:55:30;3.20;99.90
52321;DHT22;38261;54.090;13.382;2023-04-03T00:56:55;3.20;99.90
52321;DHT22;38261;54.090;13.382;2023-04-03T00:58:20;3.20;99.90
52321;DHT22;38261;54.090;13.382;2023-04-03T00:59:46;3.10;99.90
52321;DHT22;38261;54.090;13.382;2023-04-03T01:01:14;3.10;99.90
52321;DHT22;38261;54.090;13.382;2023-04-03T01:02:38;3.20;99.90
52321;DHT22;38261;54.090;13.382;2023-04-03T01:04:03;3.10;99.90
52321;DHT22;38261;54.090;13.382;2023-04-03T01:05:26;3.20;99.90
52321;DHT22;38261;54.090;13.382;2023-04-03T01:06:48;3.20;99.90
52321;DHT22;38261;54.090;13.382;2023-04-03T01:08:10;3.20;99.90
52321;DHT22;38261;54.090;13.382;2023-04-03T01:09:33;3.20;99.90
52321;DHT22;38261;54.090;13.382;2023-04-03T01:10:56;3.20;99.90
52321;DHT22;38261;54.090;13.382;2023-04-03T01:12:21;3.20;99.90
52321;DHT22;38261;54.090;13.382;2023-04-03T01:13:44;3.10;99.90
52321;DHT22;38261;54.090;13.382;2023-04-03T01:15:10;3.10;99.90
52321;DHT22;38261;54.090;13.382;2023-04-03T01:16:32;3.10;99.90
52321;DHT22;38261;54.090;13.382;2023-04-03T01:17:56;3.10;99.90
52321;DHT22;38261;54.090;13.382;2023-04-03T01:19:19;3.00;99.90
52321;DHT22;38261;54.090;13.382;2023-04-03T01:22:38;3.00;99.90
52321;DHT22;38261;54.090;13.382;2023-04-03T01:25:24;3.00;99.90
52321;DHT22;38261;54.090;13.382;2023-04-03T01:26:46;3.00;99.90
52321;DHT22;38261;54.090;13.382;2023-04-03T01:28:34;3.00;99.90
52321;DHT22;38261;54.090;13.382;2023-04-03T01:29:54;3.00;99.90
52321;DHT22;38261;54.090;13.382;2023-04-03T01:32:41;3.00;99.90
52321;DHT22;38261;54.090;13.382;2023-04-03T01:34:04;3.00;99.90
52321;DHT22;38261;54.090;13.382;2023-04-03T01:35:26;3.00;99.90
52321;DHT22;38261;54.090;13.382;2023-04-03T01:36:48;3.10;99.90
52321;DHT22;38261;54.090;13.382;2023-04-03T01:38:10;3.10;99.90
52321;DHT22;38261;54.090;13.382;2023-04-03T01:39:33;3.10;99.90
52321;DHT22;38261;54.090;13.382;2023-04-03T01:40:55;3.10;99.90
52321;DHT22;38261;54.090;13.382;2023-04-03T01:42:17;3.10;99.90
52321;DHT22;38261;54.090;13.382;2023-04-03T01:43:39;3.10;99.90
52321;DHT22;38261;54.090;13.382;2023-04-03T01:45:01;3.10;99.90
52321;DHT22;38261;54.090;13.382;2023-04-03T01:46:23;3.10;99.90
52321;DHT22;38261;54.090;13.382;2023-04-03T01:47:45;3.10;99.90
52321;DHT22;38261;54.090;13.382;2023-04-03T01:49:07;3.10;99.90
52321;DHT22;38261;54.090;13.382;2023-04-03T01:50:30;3.20;99.90
52321;DHT22;38261;54.090;13.382;2023-04-03T01:51:52;3.20;99.90
52321;DHT22;38261;54.090;13.382;2023-04-03T01:53:14;3.20;99.90
52321;DHT22;38261;54.090;13.382;2023-04-03T01:54:36;3.20;99.90
52321;DHT22;38261;54.090;13.382;2023-04-03T01:55:58;3.20;99.90
52321;DHT22;38261;54.090;13.382;2023-04-03T01:57:20;3.20;99.90
52321;DHT22;38261;54.090;13.382;2023-04-03T01:58:42;3.20;99.90
52321;DHT22;38261;54.090;13.382;2023-04-03T02:00:05;3.20;99.90
52321;DHT22;38261;54.090;13.382;2023-04-03T02:01:27;3.20;99.90
52321;DHT22;38261;54.090;13.382;2023-04-03T02:02:49;3.20;99.90
52321;DHT22;38261;54.090;13.382;2023-04-03T02:04:12;3.20;99.90
52321;DHT22;38261;54.090;13.382;2023-04-03T02:05:34;3.10;99.90
52321;DHT22;38261;54.090;13.382;2023-04-03T02:06:57;3.20;99.90
52321;DHT22;38261;54.090;13.382;2023-04-03T02:08:19;3.10;99.90
52321;DHT22;38261;54.090;13.382;2023-04-03T02:09:41;3.10;99.90
52321;DHT22;38261;54.090;13.382;2023-04-03T02:11:03;3.00;99.90
52321;DHT22;38261;54.090;13.382;2023-04-03T02:12:26;3.00;99.90
52321;DHT22;38261;54.090;13.382;2023-04-03T02:13:48;3.00;99.90
52321;DHT22;38261;54.090;13.382;2023-04-03T02:15:10;3.00;99.90
52321;DHT22;38261;54.090;13.382;2023-04-03T02:16:32;3.00;99.90
52321;DHT22;38261;54.090;13.382;2023-04-03T02:17:54;2.90;99.90
52321;DHT22;38261;54.090;13.382;2023-04-03T02:19:17;2.90;99.90
52321;DHT22;38261;54.090;13.382;2023-04-03T02:20:39;2.90;99.90
52321;DHT22;38261;54.090;13.382;2023-04-03T02:22:02;2.90;99.90
52321;DHT22;38261;54.090;13.382;2023-04-03T02:23:24;2.80;99.90
52321;DHT22;38261;54.090;13.382;2023-04-03T02:24:46;2.80;99.90
52321;DHT22;38261;54.090;13.382;2023-04-03T02:26:11;2.80;99.90
52321;DHT22;38261;54.090;13.382;2023-04-03T02:27:34;2.80;99.90
52321;DHT22;38261;54.090;13.382;2023-04-03T02:28:57;2.80;99.90
52321;DHT22;38261;54.090;13.382;2023-04-03T02:30:19;2.70;99.90
52321;DHT22;38261;54.090;13.382;2023-04-03T02:31:41;2.70;99.90
52321;DHT22;38261;54.090;13.382;2023-04-03T02:33:03;2.70;99.90
52321;DHT22;38261;54.090;13.382;2023-04-03T02:34:25;2.70;99.90
52321;DHT22;38261;54.090;13.382;2023-04-03T02:35:47;2.70;99.90
52321;DHT22;38261;54.090;13.382;2023-04-03T02:37:15;2.70;99.90
52321;DHT22;38261;54.090;13.382;2023-04-03T02:38:37;2.70;99.90
52321;DHT22;38261;54.090;13.382;2023-04-03T02:39:59;2.70;99.90
52321;DHT22;38261;54.090;13.382;2023-04-03T02:41:21;2.70;99.90
52321;DHT22;38261;54.090;13.382;2023-04-03T02:42:43;2.70;99.90
52321;DHT22;38261;54.090;13.382;2023-04-03T02:44:06;2.70;99.90
52321;DHT22;38261;54.090;13.382;2023-04-03T02:45:29;2.70;99.90
52321;DHT22;38261;54.090;13.382;2023-04-03T02:46:51;2.70;99.90
52321;DHT22;38261;54.090;13.382;2023-04-03T02:48:13;2.70;99.90
52321;DHT22;38261;54.090;13.382;2023-04-03T02:49:36;2.70;99.90
52321;DHT22;38261;54.090;13.382;2023-04-03T02:50:58;2.70;99.90
52321;DHT22;38261;54.090;13.382;2023-04-03T02:52:21;2.70;99.90
52321;DHT22;38261;54.090;13.382;2023-04-03T02:53:43;2.60;99.90
52321;DHT22;38261;54.090;13.382;2023-04-03T02:55:05;2.60;99.90
52321;DHT22;38261;54.090;13.382;2023-04-03T02:56:28;2.60;99.90
52321;DHT22;38261;54.090;13.382;2023-04-03T02:57:50;2.60;99.90
52321;DHT22;38261;54.090;13.382;2023-04-03T02:59:12;2.50;99.90
52321;DHT22;38261;54.090;13.382;2023-04-03T03:00:34;2.60;99.90
52321;DHT22;38261;54.090;13.382;2023-04-03T03:01:57;2.50;99.90
52321;DHT22;38261;54.090;13.382;2023-04-03T03:03:19;2.60;99.90
52321;DHT22;38261;54.090;13.382;2023-04-03T03:04:41;2.60;99.90
52321;DHT22;38261;54.090;13.382;2023-04-03T03:06:10;2.60;99.90
52321;DHT22;38261;54.090;13.382;2023-04-03T03:07:33;2.60;99.90
52321;DHT22;38261;54.090;13.382;2023-04-03T03:08:55;2.60;99.90
52321;DHT22;38261;54.090;13.382;2023-04-03T03:10:17;2.60;99.90
52321;DHT22;38261;54.090;13.382;2023-04-03T03:11:39;2.60;99.90
52321;DHT22;38261;54.090;13.382;2023-04-03T03:13:02;2.60;99.90
52321;DHT22;38261;54.090;13.382;2023-04-03T03:14:24;2.60;99.90
52321;DHT22;38261;54.090;13.382;2023-04-03T03:15:46;2.60;99.90
52321;DHT22;38261;54.090;13.382;2023-04-03T03:17:08;2.60;99.90
52321;DHT22;38261;54.090;13.382;2023-04-03T03:18:30;2.60;99.90
52321;DHT22;38261;54.090;13.382;2023-04-03T03:19:52;2.60;99.90
52321;DHT22;38261;54.090;13.382;2023-04-03T03:21:14;2.60;99.90
52321;DHT22;38261;54.090;13.382;2023-04-03T03:22:37;2.60;99.90
52321;DHT22;38261;54.090;13.382;2023-04-03T03:23:59;2.60;99.90
52321;DHT22;38261;54.090;13.382;2023-04-03T03:25:21;2.50;99.90
52321;DHT22;38261;54.090;13.382;2023-04-03T03:26:43;2.50;99.90
52321;DHT22;38261;54.090;13.382;2023-04-03T03:28:05;2.50;99.90
52321;DHT22;38261;54.090;13.382;2023-04-03T03:29:27;2.40;99.90
52321;DHT22;38261;54.090;13.382;2023-04-03T03:30:49;2.40;99.90
52321;DHT22;38261;54.090;13.382;2023-04-03T03:32:12;2.40;99.90
52321;DHT22;38261;54.090;13.382;2023-04-03T03:33:34;2.40;99.90
52321;DHT22;38261;54.090;13.382;2023-04-03T03:34:56;2.40;99.90
52321;DHT22;38261;54.090;13.382;2023-04-03T03:36:18;2.40;99.90
52321;DHT22;38261;54.090;13.382;2023-04-03T03:37:40;2.40;99.90
52321;DHT22;38261;54.090;13.382;2023-04-03T03:39:03;2.40;99.90
52321;DHT22;38261;54.090;13.382;2023-04-03T03:40:25;2.40;99.90
52321;DHT22;38261;54.090;13.382;2023-04-03T03:41:47;2.40;99.90
52321;DHT22;38261;54.090;13.382;2023-04-03T03:43:11;2.40;99.90
52321;DHT22;38261;54.090;13.382;2023-04-03T03:44:33;2.50;99.90
52321;DHT22;38261;54.090;13.382;2023-04-03T03:45:55;2.50;99.90
52321;DHT22;38261;54.090;13.382;2023-04-03T03:47:17;2.50;99.90
52321;DHT22;38261;54.090;13.382;2023-04-03T03:48:39;2.50;99.90
52321;DHT22;38261;54.090;13.382;2023-04-03T03:50:02;2.50;99.90
52321;DHT22;38261;54.090;13.382;2023-04-03T03:51:24;2.40;99.90
52321;DHT22;38261;54.090;13.382;2023-04-03T03:52:46;2.50;99.90
52321;DHT22;38261;54.090;13.382;2023-04-03T03:54:09;2.50;99.90
52321;DHT22;38261;54.090;13.382;2023-04-03T03:55:31;2.40;99.90
52321;DHT22;38261;54.090;13.382;2023-04-03T03:56:53;2.40;99.90
52321;DHT22;38261;54.090;13.382;2023-04-03T03:58:16;2.40;99.90
52321;DHT22;38261;54.090;13.382;2023-04-03T03:59:38;2.40;99.90
52321;DHT22;38261;54.090;13.382;2023-04-03T04:01:03;2.40;99.90
52321;DHT22;38261;54.090;13.382;2023-04-03T04:02:27;2.40;99.90
52321;DHT22;38261;54.090;13.382;2023-04-03T04:03:50;2.40;99.90
52321;DHT22;38261;54.090;13.382;2023-04-03T04:05:12;2.40;99.90
52321;DHT22;38261;54.090;13.382;2023-04-03T04:06:34;2.40;99.90
52321;DHT22;38261;54.090;13.382;2023-04-03T04:07:56;2.40;99.90
52321;DHT22;38261;54.090;13.382;2023-04-03T04:09:18;2.40;99.90
52321;DHT22;38261;54.090;13.382;2023-04-03T04:10:41;2.30;99.90
52321;DHT22;38261;54.090;13.382;2023-04-03T04:12:03;2.30;99.90
52321;DHT22;38261;54.090;13.382;2023-04-03T04:13:25;2.30;99.90
52321;DHT22;38261;54.090;13.382;2023-04-03T04:14:47;2.30;99.90
52321;DHT22;38261;54.090;13.382;2023-04-03T04:16:09;2.30;99.90
52321;DHT22;38261;54.090;13.382;2023-04-03T04:17:31;2.30;99.90
52321;DHT22;38261;54.090;13.382;2023-04-03T04:18:53;2.30;99.90
52321;DHT22;38261;54.090;13.382;2023-04-03T04:20:16;2.30;99.90
52321;DHT22;38261;54.090;13.382;2023-04-03T04:21:39;2.30;99.90
52321;DHT22;38261;54.090;13.382;2023-04-03T04:23:01;2.30;99.90
52321;DHT22;38261;54.090;13.382;2023-04-03T04:24:23;2.30;99.90
52321;DHT22;38261;54.090;13.382;2023-04-03T04:25:46;2.30;99.90
52321;DHT22;38261;54.090;13.382;2023-04-03T04:27:08;2.30;99.90
52321;DHT22;38261;54.090;13.382;2023-04-03T04:28:30;2.30;99.90
52321;DHT22;38261;54.090;13.382;2023-04-03T04:29:52;2.30;99.90
52321;DHT22;38261;54.090;13.382;2023-04-03T04:31:14;2.30;99.90
52321;DHT22;38261;54.090;13.382;2023-04-03T04:32:37;2.30;99.90
52321;DHT22;38261;54.090;13.382;2023-04-03T04:33:59;2.30;99.90
52321;DHT22;38261;54.090;13.382;2023-04-03T04:35:21;2.40;99.90
52321;DHT22;38261;54.090;13.382;2023-04-03T04:36:43;2.40;99.90
52321;DHT22;38261;54.090;13.382;2023-04-03T04:38:05;2.40;99.90
52321;DHT22;38261;54.090;13.382;2023-04-03T04:39:28;2.40;99.90
52321;DHT22;38261;54.090;13.382;2023-04-03T04:40:50;2.40;99.90
52321;DHT22;38261;54.090;13.382;2023-04-03T04:42:12;2.40;99.90
52321;DHT22;38261;54.090;13.382;2023-04-03T04:43:37;2.40;99.90
52321;DHT22;38261;54.090;13.382;2023-04-03T04:44:59;2.40;99.90
52321;DHT22;38261;54.090;13.382;2023-04-03T04:46:22;2.40;99.90
52321;DHT22;38261;54.090;13.382;2023-04-03T04:47:44;2.40;99.90
52321;DHT22;38261;54.090;13.382;2023-04-03T04:49:06;2.40;99.90
52321;DHT22;38261;54.090;13.382;2023-04-03T04:50:28;2.40;99.90
52321;DHT22;38261;54.090;13.382;2023-04-03T04:51:51;2.40;99.90
52321;DHT22;38261;54.090;13.382;2023-04-03T04:53:13;2.50;99.90
52321;DHT22;38261;54.090;13.382;2023-04-03T04:54:35;2.50;99.90
52321;DHT22;38261;54.090;13.382;2023-04-03T04:55:57;2.50;99.90
52321;DHT22;38261;54.090;13.382;2023-04-03T04:57:19;2.50;99.90
52321;DHT22;38261;54.090;13.382;2023-04-03T04:58:41;2.50;99.90
52321;DHT22;38261;54.090;13.382;2023-04-03T05:00:04;2.50;99.90
52321;DHT22;38261;54.090;13.382;2023-04-03T05:01:26;2.50;99.90
52321;DHT22;38261;54.090;13.382;2023-04-03T05:02:49;2.60;99.90
52321;DHT22;38261;54.090;13.382;2023-04-03T05:04:11;2.60;99.90
52321;DHT22;38261;54.090;13.382;2023-04-03T05:05:34;2.60;99.90
52321;DHT22;38261;54.090;13.382;2023-04-03T05:06:57;2.70;99.90
52321;DHT22;38261;54.090;13.382;2023-04-03T05:08:19;2.60;99.90
52321;DHT22;38261;54.090;13.382;2023-04-03T05:09:41;2.70;99.90
52321;DHT22;38261;54.090;13.382;2023-04-03T05:11:04;2.60;99.90
52321;DHT22;38261;54.090;13.382;2023-04-03T05:12:26;2.60;99.90
52321;DHT22;38261;54.090;13.382;2023-04-03T05:13:48;2.60;99.90
52321;DHT22;38261;54.090;13.382;2023-04-03T05:15:10;2.50;99.90
52321;DHT22;38261;54.090;13.382;2023-04-03T05:16:33;2.50;99.90
52321;DHT22;38261;54.090;13.382;2023-04-03T05:17:55;2.50;99.90
52321;DHT22;38261;54.090;13.382;2023-04-03T05:19:18;2.50;99.90
52321;DHT22;38261;54.090;13.382;2023-04-03T05:20:40;2.50;99.90
52321;DHT22;38261;54.090;13.382;2023-04-03T05:22:02;2.50;99.90
52321;DHT22;38261;54.090;13.382;2023-04-03T05:23:24;2.50;99.90
52321;DHT22;38261;54.090;13.382;2023-04-03T05:24:46;2.50;99.90
52321;DHT22;38261;54.090;13.382;2023-04-03T05:26:08;2.50;99.90
52321;DHT22;38261;54.090;13.382;2023-04-03T05:27:31;2.50;99.90
52321;DHT22;38261;54.090;13.382;2023-04-03T05:28:53;2.60;99.90
52321;DHT22;38261;54.090;13.382;2023-04-03T05:30:16;2.60;99.90
52321;DHT22;38261;54.090;13.382;2023-04-03T05:31:38;2.60;99.90
52321;DHT22;38261;54.090;13.382;2023-04-03T05:33:00;2.60;99.90
52321;DHT22;38261;54.090;13.382;2023-04-03T05:34:22;2.70;99.90
52321;DHT22;38261;54.090;13.382;2023-04-03T05:35:45;2.70;99.90
52321;DHT22;38261;54.090;13.382;2023-04-03T05:37:07;2.70;99.90
52321;DHT22;38261;54.090;13.382;2023-04-03T05:38:30;2.70;99.90
52321;DHT22;38261;54.090;13.382;2023-04-03T05:39:52;2.70;99.90
52321;DHT22;38261;54.090;13.382;2023-04-03T05:41:15;2.80;99.90
52321;DHT22;38261;54.090;13.382;2023-04-03T05:42:37;2.80;99.90
52321;DHT22;38261;54.090;13.382;2023-04-03T05:43:59;2.80;99.90
52321;DHT22;38261;54.090;13.382;2023-04-03T05:45:21;2.90;99.90
52321;DHT22;38261;54.090;13.382;2023-04-03T05:46:43;3.00;99.90
52321;DHT22;38261;54.090;13.382;2023-04-03T05:48:06;3.00;99.90
52321;DHT22;38261;54.090;13.382;2023-04-03T05:49:28;3.00;99.90
52321;DHT22;38261;54.090;13.382;2023-04-03T05:50:50;3.00;99.90
52321;DHT22;38261;54.090;13.382;2023-04-03T05:52:22;3.00;99.90
52321;DHT22;38261;54.090;13.382;2023-04-03T05:53:45;3.00;99.90
52321;DHT22;38261;54.090;13.382;2023-04-03T05:55:08;3.00;99.90
52321;DHT22;38261;54.090;13.382;2023-04-03T05:56:30;3.10;99.90
52321;DHT22;38261;54.090;13.382;2023-04-03T05:57:52;3.10;99.90
52321;DHT22;38261;54.090;13.382;2023-04-03T05:59:16;3.30;99.90
52321;DHT22;38261;54.090;13.382;2023-04-03T06:00:38;3.50;99.90
52321;DHT22;38261;54.090;13.382;2023-04-03T06:02:00;3.60;99.90
52321;DHT22;38261;54.090;13.382;2023-04-03T06:03:23;3.60;99.90
52321;DHT22;38261;54.090;13.382;2023-04-03T06:04:45;3.60;99.90
52321;DHT22;38261;54.090;13.382;2023-04-03T06:06:10;3.70;99.90
52321;DHT22;38261;54.090;13.382;2023-04-03T06:07:33;3.70;99.90
52321;DHT22;38261;54.090;13.382;2023-04-03T06:08:55;3.60;99.90
52321;DHT22;38261;54.090;13.382;2023-04-03T06:10:17;3.80;99.90
52321;DHT22;38261;54.090;13.382;2023-04-03T06:11:40;3.80;99.90
52321;DHT22;38261;54.090;13.382;2023-04-03T06:13:03;3.90;99.90
52321;DHT22;38261;54.090;13.382;2023-04-03T06:14:26;3.90;99.90
52321;DHT22;38261;54.090;13.382;2023-04-03T06:15:48;3.90;99.90
52321;DHT22;38261;54.090;13.382;2023-04-03T06:17:10;3.90;99.90
52321;DHT22;38261;54.090;13.382;2023-04-03T06:18:34;3.80;99.90
52321;DHT22;38261;54.090;13.382;2023-04-03T06:19:56;3.80;99.90
52321;DHT22;38261;54.090;13.382;2023-04-03T06:21:20;3.80;99.90
52321;DHT22;38261;54.090;13.382;2023-04-03T06:22:42;3.80;99.90
52321;DHT22;38261;54.090;13.382;2023-04-03T06:24:05;3.80;99.90
52321;DHT22;38261;54.090;13.382;2023-04-03T06:25:27;3.80;99.90
52321;DHT22;38261;54.090;13.382;2023-04-03T06:26:50;3.80;99.90
52321;DHT22;38261;54.090;13.382;2023-04-03T06:28:13;3.70;99.90
52321;DHT22;38261;54.090;13.382;2023-04-03T06:29:35;3.70;99.90
52321;DHT22;38261;54.090;13.382;2023-04-03T06:30:57;3.70;99.90
52321;DHT22;38261;54.090;13.382;2023-04-03T06:32:19;3.70;99.90
52321;DHT22;38261;54.090;13.382;2023-04-03T06:33:41;3.70;99.90
52321;DHT22;38261;54.090;13.382;2023-04-03T06:35:05;3.70;99.90
52321;DHT22;38261;54.090;13.382;2023-04-03T06:36:27;3.70;99.90
52321;DHT22;38261;54.090;13.382;2023-04-03T06:37:49;3.60;99.90
52321;DHT22;38261;54.090;13.382;2023-04-03T06:39:15;3.60;99.90
52321;DHT22;38261;54.090;13.382;2023-04-03T06:40:37;3.60;99.90
52321;DHT22;38261;54.090;13.382;2023-04-03T06:42:00;3.60;99.90
52321;DHT22;38261;54.090;13.382;2023-04-03T06:43:22;3.60;99.90
52321;DHT22;38261;54.090;13.382;2023-04-03T06:44:45;3.60;99.90
52321;DHT22;38261;54.090;13.382;2023-04-03T06:46:14;3.50;99.90
52321;DHT22;38261;54.090;13.382;2023-04-03T06:47:37;3.50;99.90
52321;DHT22;38261;54.090;13.382;2023-04-03T06:48:59;3.40;99.90
52321;DHT22;38261;54.090;13.382;2023-04-03T06:50:21;3.40;99.90
52321;DHT22;38261;54.090;13.382;2023-04-03T06:51:43;3.40;99.90
52321;DHT22;38261;54.090;13.382;2023-04-03T06:53:06;3.40;99.90
52321;DHT22;38261;54.090;13.382;2023-04-03T06:54:28;3.40;99.90
52321;DHT22;38261;54.090;13.382;2023-04-03T06:55:51;3.40;99.90
52321;DHT22;38261;54.090;13.382;2023-04-03T06:57:13;3.40;99.90
52321;DHT22;38261;54.090;13.382;2023-04-03T06:58:35;3.50;99.90
52321;DHT22;38261;54.090;13.382;2023-04-03T06:59:57;3.60;99.90
52321;DHT22;38261;54.090;13.382;2023-04-03T07:01:21;3.70;99.90
52321;DHT22;38261;54.090;13.382;2023-04-03T07:02:43;3.80;99.90
52321;DHT22;38261;54.090;13.382;2023-04-03T07:04:05;3.80;99.90
52321;DHT22;38261;54.090;13.382;2023-04-03T07:05:28;3.80;99.90
52321;DHT22;38261;54.090;13.382;2023-04-03T07:06:50;3.80;99.90
52321;DHT22;38261;54.090;13.382;2023-04-03T07:08:12;3.90;99.90
52321;DHT22;38261;54.090;13.382;2023-04-03T07:09:34;4.00;99.90
52321;DHT22;38261;54.090;13.382;2023-04-03T07:10:56;4.00;99.90
52321;DHT22;38261;54.090;13.382;2023-04-03T07:12:18;4.10;99.90
52321;DHT22;38261;54.090;13.382;2023-04-03T07:13:41;4.10;99.90
52321;DHT22;38261;54.090;13.382;2023-04-03T07:15:04;4.10;99.90
52321;DHT22;38261;54.090;13.382;2023-04-03T07:16:27;4.10;99.90
52321;DHT22;38261;54.090;13.382;2023-04-03T07:17:49;4.10;99.90
52321;DHT22;38261;54.090;13.382;2023-04-03T07:19:11;4.10;99.90
52321;DHT22;38261;54.090;13.382;2023-04-03T07:20:33;4.20;99.90
52321;DHT22;38261;54.090;13.382;2023-04-03T07:21:55;4.20;99.90
52321;DHT22;38261;54.090;13.382;2023-04-03T07:23:18;4.20;99.90
52321;DHT22;38261;54.090;13.382;2023-04-03T07:24:40;4.20;99.90
52321;DHT22;38261;54.090;13.382;2023-04-03T07:26:03;4.20;99.90
52321;DHT22;38261;54.090;13.382;2023-04-03T07:27:26;4.20;99.90
52321;DHT22;38261;54.090;13.382;2023-04-03T07:28:49;4.20;99.90
52321;DHT22;38261;54.090;13.382;2023-04-03T07:30:12;4.10;99.90
52321;DHT22;38261;54.090;13.382;2023-04-03T07:31:35;4.20;99.90
52321;DHT22;38261;54.090;13.382;2023-04-03T07:32:58;4.40;99.90
52321;DHT22;38261;54.090;13.382;2023-04-03T07:34:20;4.60;99.90
52321;DHT22;38261;54.090;13.382;2023-04-03T07:35:42;4.70;99.90
52321;DHT22;38261;54.090;13.382;2023-04-03T07:37:05;4.70;99.90
52321;DHT22;38261;54.090;13.382;2023-04-03T07:38:28;4.70;99.90
52321;DHT22;38261;54.090;13.382;2023-04-03T07:39:50;4.70;99.90
52321;DHT22;38261;54.090;13.382;2023-04-03T07:41:15;4.70;99.90
52321;DHT22;38261;54.090;13.382;2023-04-03T07:42:39;4.70;99.90
52321;DHT22;38261;54.090;13.382;2023-04-03T07:44:01;4.60;99.90
52321;DHT22;38261;54.090;13.382;2023-04-03T07:45:24;4.50;99.90
52321;DHT22;38261;54.090;13.382;2023-04-03T07:46:46;4.40;99.90
52321;DHT22;38261;54.090;13.382;2023-04-03T07:48:09;4.40;99.90
52321;DHT22;38261;54.090;13.382;2023-04-03T07:49:32;4.30;99.90
52321;DHT22;38261;54.090;13.382;2023-04-03T07:50:59;4.30;99.90
52321;DHT22;38261;54.090;13.382;2023-04-03T07:52:22;4.30;99.90
52321;DHT22;38261;54.090;13.382;2023-04-03T07:53:44;4.30;99.90
52321;DHT22;38261;54.090;13.382;2023-04-03T07:55:06;4.40;99.90
52321;DHT22;38261;54.090;13.382;2023-04-03T07:56:28;4.50;99.90
52321;DHT22;38261;54.090;13.382;2023-04-03T07:57:51;4.60;99.90
52321;DHT22;38261;54.090;13.382;2023-04-03T07:59:13;4.80;99.90
52321;DHT22;38261;54.090;13.382;2023-04-03T08:00:35;4.90;99.90
52321;DHT22;38261;54.090;13.382;2023-04-03T08:01:57;4.90;99.90
52321;DHT22;38261;54.090;13.382;2023-04-03T08:03:19;5.00;99.90
52321;DHT22;38261;54.090;13.382;2023-04-03T08:04:42;5.00;99.90
52321;DHT22;38261;54.090;13.382;2023-04-03T08:06:06;4.90;99.90
52321;DHT22;38261;54.090;13.382;2023-04-03T08:07:37;4.80;99.90
52321;DHT22;38261;54.090;13.382;2023-04-03T08:08:59;4.90;99.90
52321;DHT22;38261;54.090;13.382;2023-04-03T08:10:22;5.10;99.90
52321;DHT22;38261;54.090;13.382;2023-04-03T08:11:44;5.30;99.90
52321;DHT22;38261;54.090;13.382;2023-04-03T08:13:08;5.50;99.90
52321;DHT22;38261;54.090;13.382;2023-04-03T08:14:32;5.70;99.90
52321;DHT22;38261;54.090;13.382;2023-04-03T08:15:56;5.90;99.90
52321;DHT22;38261;54.090;13.382;2023-04-03T08:17:19;6.10;99.90
52321;DHT22;38261;54.090;13.382;2023-04-03T08:18:41;6.30;99.90
52321;DHT22;38261;54.090;13.382;2023-04-03T08:20:07;6.30;99.90
52321;DHT22;38261;54.090;13.382;2023-04-03T08:21:30;6.20;99.90
52321;DHT22;38261;54.090;13.382;2023-04-03T08:22:52;6.10;99.90
52321;DHT22;38261;54.090;13.382;2023-04-03T08:24:14;6.00;99.90
52321;DHT22;38261;54.090;13.382;2023-04-03T08:25:40;5.90;99.90
52321;DHT22;38261;54.090;13.382;2023-04-03T08:27:03;5.70;99.90
52321;DHT22;38261;54.090;13.382;2023-04-03T08:28:25;5.50;99.90
52321;DHT22;38261;54.090;13.382;2023-04-03T08:29:47;5.50;99.90
52321;DHT22;38261;54.090;13.382;2023-04-03T08:31:14;5.40;99.90
52321;DHT22;38261;54.090;13.382;2023-04-03T08:32:37;5.40;99.90
52321;DHT22;38261;54.090;13.382;2023-04-03T08:33:59;5.40;99.90
52321;DHT22;38261;54.090;13.382;2023-04-03T08:35:21;5.40;99.90
52321;DHT22;38261;54.090;13.382;2023-04-03T08:36:43;5.40;99.90
52321;DHT22;38261;54.090;13.382;2023-04-03T08:38:06;5.40;99.90
52321;DHT22;38261;54.090;13.382;2023-04-03T08:39:28;5.50;99.90
52321;DHT22;38261;54.090;13.382;2023-04-03T08:41:27;5.60;99.90
52321;DHT22;38261;54.090;13.382;2023-04-03T08:44:25;5.70;99.90
52321;DHT22;38261;54.090;13.382;2023-04-03T08:45:53;5.80;99.90
52321;DHT22;38261;54.090;13.382;2023-04-03T08:47:28;5.80;99.90
52321;DHT22;38261;54.090;13.382;2023-04-03T08:48:53;5.80;99.90
52321;DHT22;38261;54.090;13.382;2023-04-03T08:50:31;6.00;99.90